Time;durP1;ratioP1;P1;durP2;ratioP2;P2;SDS_P1;SDS_P2;PMS_P1;PMS_P2;Temp;Humidity;BMP_temperature;BMP_pressure;BME280_temperature;BME280_humidity;BME280_pressure;Samples;Min_cycle;Max_cycle;Signal;HPM_P1;HPM_P2
2021/06/13 00:00:07;;;;;;;8.63;3.15;;;24.40;51.00;;;;;;6234492;27;81038;-63
2021/06/13 00:03:13;;;;;;;;;;;24.40;50.90;;;;;;6232923;27;89438;-63
2021/06/13 00:06:13;;;;;;;3.08;2.63;;;24.40;51.00;;;;;;6237228;28;83220;-63
2021/06/13 00:09:14;;;;;;;5.35;2.70;;;24.40;51.00;;;;;;6240646;27;80337;-62
2021/06/13 00:12:14;;;;;;;7.90;3.13;;;24.40;50.90;;;;;;6233440;27;82870;-63
2021/06/13 00:15:15;;;;;;;5.97;2.88;;;24.40;51.00;;;;;;6212801;27;82404;-63
2021/06/13 00:18:15;;;;;;;4.90;2.83;;;24.40;51.10;;;;;;6234051;27;80368;-63
2021/06/13 00:21:16;;;;;;;2.92;2.63;;;24.30;51.00;;;;;;6240017;27;80869;-63
2021/06/13 00:24:16;;;;;;;6.22;3.00;;;24.30;51.00;;;;;;6233271;27;80239;-63
2021/06/13 00:27:17;;;;;;;5.43;2.88;;;24.30;51.00;;;;;;6234605;27;80422;-62
2021/06/13 00:30:17;;;;;;;4.78;2.50;;;24.30;51.00;;;;;;6234798;27;80264;-63
2021/06/13 00:33:18;;;;;;;5.72;3.03;;;24.30;50.80;;;;;;6233003;27;85371;-63
2021/06/13 00:36:18;;;;;;;6.63;2.47;;;24.30;50.90;;;;;;6233945;27;80230;-63
2021/06/13 00:39:19;;;;;;;4.47;2.70;;;24.30;51.00;;;;;;6234988;27;81216;-63
2021/06/13 00:42:19;;;;;;;4.65;2.58;;;24.30;50.90;;;;;;6214490;27;82667;-63
2021/06/13 00:45:20;;;;;;;3.28;2.72;;;24.30;50.90;;;;;;6244131;27;81449;-63
2021/06/13 00:48:21;;;;;;;5.53;3.00;;;24.30;50.80;;;;;;6248494;27;80675;-63
2021/06/13 00:51:21;;;;;;;5.38;3.30;;;24.30;51.00;;;;;;6244494;27;80895;-63
2021/06/13 00:54:22;;;;;;;4.13;2.95;;;24.30;51.00;;;;;;6228442;27;83203;-63
2021/06/13 00:57:23;;;;;;;4.20;3.40;;;24.30;51.20;;;;;;6232136;27;82729;-63
2021/06/13 01:00:24;;;;;;;3.83;3.40;;;24.30;51.00;;;;;;6233943;27;81793;-63
2021/06/13 01:03:26;;;;;;;4.18;3.20;;;24.30;51.00;;;;;;6233329;27;80448;-62
2021/06/13 01:06:26;;;;;;;4.63;3.47;;;24.30;50.90;;;;;;6233243;27;80063;-63
2021/06/13 01:09:27;;;;;;;4.85;3.30;;;24.30;51.00;;;;;;6231048;27;82627;-63
2021/06/13 01:12:28;;;;;;;7.82;3.60;;;24.30;51.00;;;;;;6233175;27;81212;-62
2021/06/13 01:15:30;;;;;;;5.38;3.80;;;24.30;51.00;;;;;;6240076;27;81499;-62
2021/06/13 01:18:31;;;;;;;5.15;2.85;;;24.30;51.30;;;;;;6234492;27;81464;-62
2021/06/13 01:21:32;;;;;;;5.78;3.58;;;24.30;51.00;;;;;;6232003;27;83220;-63
2021/06/13 01:24:32;;;;;;;6.00;4.10;;;24.30;51.00;;;;;;6234497;27;81553;-62
2021/06/13 01:27:34;;;;;;;4.40;3.35;;;24.30;51.20;;;;;;6233375;27;81542;-62
2021/06/13 01:30:34;;;;;;;4.50;3.58;;;24.30;51.00;;;;;;6232512;27;80353;-62
2021/06/13 01:33:36;;;;;;;7.05;3.83;;;24.30;50.90;;;;;;6224540;27;81637;-63
2021/06/13 01:36:38;;;;;;;5.63;3.80;;;24.30;51.10;;;;;;6239439;27;83899;-62
2021/06/13 01:39:38;;;;;;;4.45;3.65;;;24.30;51.00;;;;;;6233182;27;80509;-62
2021/06/13 01:42:43;;;;;;;5.45;4.15;;;24.30;50.90;;;;;;6232002;27;81122;-62
2021/06/13 01:45:44;;;;;;;4.45;3.22;;;24.30;51.10;;;;;;6231686;27;82056;-62
2021/06/13 01:48:46;;;;;;;4.50;3.60;;;24.30;51.10;;;;;;6231720;27;83422;-62
2021/06/13 01:51:48;;;;;;;5.78;4.38;;;24.30;50.90;;;;;;6240619;27;83321;-62
2021/06/13 01:54:48;;;;;;;4.82;4.00;;;24.30;50.90;;;;;;6231845;27;83250;-62
2021/06/13 01:57:49;;;;;;;4.75;3.47;;;24.30;50.80;;;;;;6228681;27;83144;-62
2021/06/13 02:01:10;;;;;;;11.23;4.18;;;24.30;51.00;;;;;;6231747;27;80922;-62
2021/06/13 02:04:10;;;;;;;7.40;4.18;;;24.30;50.90;;;;;;6236983;27;83449;-65
2021/06/13 02:07:18;;;;;;;6.88;3.40;;;24.30;50.80;;;;;;6229212;27;83077;-63
2021/06/13 02:10:20;;;;;;;8.10;4.10;;;24.30;50.80;;;;;;6238490;27;81810;-65
2021/06/13 02:13:20;;;;;;;6.00;3.88;;;24.30;50.80;;;;;;6228771;27;81874;-63
2021/06/13 02:16:27;;;;;;;6.25;3.85;;;24.30;50.80;;;;;;6236109;27;82935;-62
2021/06/13 02:19:28;;;;;;;5.93;4.38;;;24.30;50.90;;;;;;6214997;27;82431;-63
2021/06/13 02:22:36;;;;;;;4.80;4.13;;;24.30;50.80;;;;;;6218519;28;83251;-62
2021/06/13 02:25:38;;;;;;;11.35;4.00;;;24.30;50.80;;;;;;6222942;28;81925;-62
2021/06/13 02:28:38;;;;;;;7.20;4.07;;;24.30;50.80;;;;;;6237345;27;80558;-62
2021/06/13 02:31:39;;;;;;;8.55;4.50;;;24.30;50.80;;;;;;6238500;27;81746;-62
2021/06/13 02:34:41;;;;;;;5.18;3.60;;;24.30;50.70;;;;;;6219247;28;81278;-62
2021/06/13 02:37:45;;;;;;;6.07;3.85;;;24.30;50.70;;;;;;6236487;27;82920;-62
2021/06/13 02:40:54;;;;;;;4.35;3.78;;;24.30;50.60;;;;;;6237836;27;87122;-63
2021/06/13 02:43:54;;;;;;;5.88;3.80;;;24.30;50.50;;;;;;6230752;27;83232;-62
2021/06/13 02:47:00;;;;;;;9.32;3.92;;;24.30;50.50;;;;;;6231032;27;80451;-62
2021/06/13 02:50:01;;;;;;;7.20;4.13;;;24.20;50.50;;;;;;6237256;27;83330;-62
2021/06/13 02:53:01;;;;;;;7.05;3.78;;;24.20;50.30;;;;;;6234779;27;81968;-62
2021/06/13 02:56:03;;;;;;;4.40;3.70;;;24.20;50.30;;;;;;6231080;27;81734;-63
2021/06/13 02:59:04;;;;;;;8.32;3.60;;;24.30;50.30;;;;;;6230002;28;80457;-63
2021/06/13 03:02:06;;;;;;;5.18;3.70;;;24.20;50.30;;;;;;6232968;27;80592;-63
2021/06/13 03:05:08;;;;;;;6.80;3.28;;;24.30;50.10;;;;;;6237671;27;83422;-63
2021/06/13 03:08:09;;;;;;;5.57;3.45;;;24.20;49.90;;;;;;6233331;27;81914;-62
2021/06/13 03:11:11;;;;;;;5.88;3.30;;;24.20;49.90;;;;;;6237330;27;83302;-63
2021/06/13 03:14:12;;;;;;;4.75;3.25;;;24.30;49.70;;;;;;6231706;27;81206;-62
2021/06/13 03:17:14;;;;;;;4.50;3.00;;;24.20;49.50;;;;;;6236645;27;83224;-62
2021/06/13 03:20:16;;;;;;;5.38;3.53;;;24.20;49.30;;;;;;6241228;27;81646;-63
2021/06/13 03:23:18;;;;;;;3.53;2.67;;;24.20;49.10;;;;;;6229944;27;83641;-62
2021/06/13 03:26:18;;;;;;;4.68;3.20;;;24.20;49.30;;;;;;6234621;27;81215;-63
2021/06/13 03:29:19;;;;;;;8.50;3.00;;;24.20;49.10;;;;;;6247597;28;83147;-63
2021/06/13 03:32:21;;;;;;;4.65;2.58;;;24.20;48.70;;;;;;6234600;27;83223;-62
2021/06/13 03:35:23;;;;;;;4.43;2.65;;;24.20;48.80;;;;;;6235209;27;82782;-63
2021/06/13 03:38:24;;;;;;;9.40;2.60;;;24.20;48.40;;;;;;6235418;27;82369;-62
2021/06/13 03:41:26;;;;;;;3.30;2.40;;;24.20;48.30;;;;;;6233820;27;83282;-62
2021/06/13 03:44:27;;;;;;;2.70;2.22;;;24.10;48.10;;;;;;6235714;27;80840;-62
2021/06/13 03:47:27;;;;;;;4.35;2.83;;;24.10;47.80;;;;;;6236204;27;80258;-62
2021/06/13 03:50:28;;;;;;;6.05;3.08;;;24.20;48.10;;;;;;6245518;27;83336;-62
2021/06/13 03:53:28;;;;;;;6.63;2.10;;;24.10;47.70;;;;;;6234418;27;85262;-63
2021/06/13 03:56:29;;;;;;;5.43;2.20;;;24.20;47.60;;;;;;6234463;27;80509;-65
2021/06/13 03:59:29;;;;;;;2.95;2.03;;;24.20;47.50;;;;;;6236620;27;80280;-63
2021/06/13 04:02:30;;;;;;;3.42;2.50;;;24.20;47.80;;;;;;6235612;27;80948;-63
2021/06/13 04:05:30;;;;;;;4.30;2.05;;;24.20;47.60;;;;;;6235101;27;80092;-63
2021/06/13 04:08:31;;;;;;;3.40;2.00;;;24.20;47.40;;;;;;6234131;27;81013;-62
2021/06/13 04:11:31;;;;;;;4.05;2.55;;;24.20;47.30;;;;;;6232066;27;80276;-63
2021/06/13 04:14:32;;;;;;;2.58;2.10;;;24.20;47.70;;;;;;6230234;27;80337;-63
2021/06/13 04:17:32;;;;;;;4.72;2.10;;;24.20;48.30;;;;;;6233254;27;80380;-64
2021/06/13 04:20:33;;;;;;;4.07;1.90;;;24.30;48.60;;;;;;6235170;27;80476;-63
2021/06/13 04:23:33;;;;;;;3.45;2.33;;;24.30;48.40;;;;;;6230467;27;80267;-63
2021/06/13 04:26:34;;;;;;;2.75;2.33;;;24.30;48.40;;;;;;6229668;27;80731;-63
2021/06/13 04:29:35;;;;;;;3.13;2.40;;;24.40;48.50;;;;;;6234679;27;80788;-63
2021/06/13 04:32:35;;;;;;;5.03;2.40;;;24.40;48.30;;;;;;6241569;27;80506;-63
2021/06/13 04:35:36;;;;;;;5.05;2.15;;;24.40;48.70;;;;;;6221187;27;83003;-65
2021/06/13 04:38:36;;;;;;;2.60;1.73;;;24.40;49.40;;;;;;6233222;27;80470;-63
2021/06/13 04:41:37;;;;;;;6.47;2.42;;;24.50;49.20;;;;;;6232159;27;83079;-63
2021/06/13 04:44:37;;;;;;;6.85;3.17;;;24.50;49.40;;;;;;6231923;27;80359;-64
2021/06/13 04:47:38;;;;;;;3.47;2.72;;;24.50;49.40;;;;;;6232780;27;82092;-64
2021/06/13 04:50:38;;;;;;;3.65;2.22;;;24.50;49.40;;;;;;6241232;27;80439;-64
2021/06/13 04:53:47;;;;;;;4.07;2.17;;;24.50;49.30;;;;;;6236432;27;80802;-64
2021/06/13 04:56:48;;;;;;;3.63;2.38;;;24.60;49.30;;;;;;6234397;27;80250;-64
2021/06/13 04:59:48;;;;;;;3.67;2.10;;;24.60;49.30;;;;;;6230673;27;81795;-64
2021/06/13 05:02:49;;;;;;;5.50;2.28;;;24.60;49.30;;;;;;6234854;27;80352;-64
2021/06/13 05:05:50;;;;;;;6.07;2.40;;;24.60;49.30;;;;;;6226413;27;81007;-64
2021/06/13 05:08:51;;;;;;;3.92;2.45;;;24.60;49.40;;;;;;6231562;28;80412;-64
2021/06/13 05:11:51;;;;;;;4.60;2.40;;;24.60;49.30;;;;;;6231253;27;80551;-64
2021/06/13 05:14:52;;;;;;;3.65;2.30;;;24.60;49.30;;;;;;6232618;27;80791;-63
2021/06/13 05:17:52;;;;;;;2.83;1.90;;;24.60;49.40;;;;;;6236295;27;80711;-63
2021/06/13 05:20:53;;;;;;;3.17;2.28;;;24.60;49.90;;;;;;6237338;27;81421;-63
2021/06/13 05:23:54;;;;;;;3.58;2.42;;;24.60;49.90;;;;;;6238590;27;80307;-63
2021/06/13 05:26:54;;;;;;;4.63;2.78;;;24.60;49.50;;;;;;6235870;27;80387;-64
2021/06/13 05:29:55;;;;;;;3.65;1.80;;;24.60;49.50;;;;;;6233200;27;80654;-65
2021/06/13 05:32:55;;;;;;;3.13;2.50;;;24.60;50.20;;;;;;6231844;27;80545;-65
2021/06/13 05:35:56;;;;;;;4.40;2.10;;;24.60;49.90;;;;;;6238437;27;80451;-64
2021/06/13 05:38:56;;;;;;;4.70;2.50;;;24.60;49.80;;;;;;6235253;27;80292;-65
2021/06/13 05:41:57;;;;;;;3.60;2.60;;;24.60;50.00;;;;;;6231524;27;80892;-65
2021/06/13 05:44:57;;;;;;;5.80;2.60;;;24.60;48.90;;;;;;6232407;27;80376;-65
2021/06/13 05:47:58;;;;;;;2.67;2.40;;;24.60;49.10;;;;;;6227725;27;81079;-65
2021/06/13 05:50:59;;;;;;;5.88;2.25;;;24.60;48.90;;;;;;6230776;27;83251;-65
2021/06/13 05:53:59;;;;;;;2.63;2.17;;;24.60;48.70;;;;;;6232044;27;81546;-65
2021/06/13 05:57:00;;;;;;;7.90;2.70;;;24.60;48.60;;;;;;6230989;27;80538;-64
2021/06/13 06:00:00;;;;;;;5.15;2.30;;;24.70;48.80;;;;;;6231693;27;80333;-64
2021/06/13 06:03:01;;;;;;;5.82;2.38;;;24.60;48.60;;;;;;6231552;27;81206;-64
2021/06/13 06:06:01;;;;;;;4.72;2.75;;;24.70;49.10;;;;;;6232433;27;80197;-64
2021/06/13 06:09:03;;;;;;;5.43;2.70;;;24.70;49.40;;;;;;6239051;27;80376;-64
2021/06/13 06:12:03;;;;;;;5.22;2.53;;;24.70;48.50;;;;;;6238907;27;83022;-64
2021/06/13 06:15:03;;;;;;;2.92;2.13;;;24.60;48.60;;;;;;6238229;27;80446;-64
2021/06/13 06:18:04;;;;;;;5.53;2.40;;;24.70;48.50;;;;;;6236409;27;80256;-64
2021/06/13 06:21:05;;;;;;;5.25;2.33;;;24.70;48.60;;;;;;6231761;27;80373;-65
2021/06/13 06:24:05;;;;;;;4.45;2.65;;;24.70;48.40;;;;;;6236671;28;80795;-64
2021/06/13 06:27:06;;;;;;;4.60;2.40;;;24.70;48.10;;;;;;6232079;27;80542;-64
2021/06/13 06:30:06;;;;;;;3.53;2.40;;;24.70;48.10;;;;;;6239648;27;80428;-64
2021/06/13 06:33:07;;;;;;;4.47;2.72;;;24.70;47.80;;;;;;6230275;27;81775;-65
2021/06/13 06:36:07;;;;;;;4.82;2.55;;;24.70;48.00;;;;;;6232685;27;81196;-65
2021/06/13 06:39:08;;;;;;;4.95;2.38;;;24.70;48.10;;;;;;6230754;27;80662;-65
2021/06/13 06:42:08;;;;;;;8.32;2.70;;;24.70;48.10;;;;;;6232682;27;81708;-65
2021/06/13 06:45:09;;;;;;;3.60;2.22;;;24.70;47.90;;;;;;6231538;27;80415;-65
2021/06/13 06:48:09;;;;;;;3.38;2.30;;;24.70;47.30;;;;;;6240035;27;80729;-65
2021/06/13 06:51:10;;;;;;;4.53;2.33;;;24.70;47.40;;;;;;6229134;27;80673;-66
2021/06/13 06:54:10;;;;;;;3.15;2.30;;;24.70;46.80;;;;;;6234436;27;81723;-65
2021/06/13 06:57:11;;;;;;;2.95;2.22;;;24.70;46.80;;;;;;6223517;27;80527;-67
2021/06/13 07:00:11;;;;;;;8.13;2.58;;;24.70;47.50;;;;;;6239008;27;80471;-65
2021/06/13 07:03:12;;;;;;;6.95;2.40;;;24.70;47.00;;;;;;6232175;27;80317;-65
2021/06/13 07:06:12;;;;;;;5.78;2.88;;;24.70;47.20;;;;;;6235322;27;80752;-65
2021/06/13 07:09:13;;;;;;;5.28;2.08;;;24.70;47.40;;;;;;6231597;27;82902;-65
2021/06/13 07:12:13;;;;;;;3.90;2.35;;;24.70;46.60;;;;;;6231243;27;83203;-64
2021/06/13 07:15:14;;;;;;;3.28;2.25;;;24.70;46.50;;;;;;6233432;27;81700;-65
2021/06/13 07:18:15;;;;;;;6.88;2.38;;;24.80;46.30;;;;;;6235666;27;80834;-64
2021/06/13 07:21:15;;;;;;;5.18;2.20;;;24.80;45.90;;;;;;6234995;27;81580;-65
2021/06/13 07:24:16;;;;;;;9.40;2.45;;;24.80;45.80;;;;;;6230676;27;81416;-66
2021/06/13 07:27:16;;;;;;;8.30;3.17;;;24.80;45.40;;;;;;6230718;27;80265;-65
2021/06/13 07:30:17;;;;;;;5.25;2.15;;;24.80;45.40;;;;;;6234509;27;83386;-64
2021/06/13 07:33:17;;;;;;;3.67;2.15;;;24.80;45.30;;;;;;6228064;27;80825;-64
2021/06/13 07:36:18;;;;;;;6.43;2.38;;;24.80;45.20;;;;;;6234403;27;81058;-64
2021/06/13 07:39:18;;;;;;;4.85;2.17;;;24.70;45.40;;;;;;6233015;27;80704;-65
2021/06/13 07:42:19;;;;;;;6.47;3.05;;;24.70;45.30;;;;;;6231433;27;80846;-64
2021/06/13 07:45:19;;;;;;;6.43;2.13;;;24.70;45.40;;;;;;6234290;27;80682;-65
2021/06/13 07:48:20;;;;;;;6.38;2.50;;;24.70;45.30;;;;;;6247448;27;80957;-59
2021/06/13 07:51:20;;;;;;;4.63;2.58;;;24.70;45.00;;;;;;6235520;27;81110;-65
2021/06/13 07:54:21;;;;;;;6.50;2.60;;;24.70;45.00;;;;;;6245888;27;80815;-63
2021/06/13 07:57:21;;;;;;;7.45;2.53;;;24.70;45.00;;;;;;6241691;27;83821;-62
2021/06/13 08:00:23;;;;;;;6.97;2.53;;;24.70;45.30;;;;;;6225612;27;80381;-63
2021/06/13 08:03:24;;;;;;;6.68;2.50;;;24.80;45.40;;;;;;6232761;27;80250;-64
2021/06/13 08:06:24;;;;;;;7.72;3.38;;;24.70;45.50;;;;;;6238477;27;81413;-64
2021/06/13 08:09:25;;;;;;;8.02;3.08;;;24.70;45.80;;;;;;6235712;27;81576;-64
2021/06/13 08:12:25;;;;;;;8.10;3.20;;;24.70;45.80;;;;;;6242764;27;81707;-64
2021/06/13 08:15:26;;;;;;;6.57;3.13;;;24.80;45.80;;;;;;6236739;27;80968;-65
2021/06/13 08:18:26;;;;;;;9.02;2.97;;;24.70;45.70;;;;;;6235767;27;80485;-65
2021/06/13 08:21:27;;;;;;;6.40;2.92;;;24.80;45.70;;;;;;6234873;27;80526;-65
2021/06/13 08:24:28;;;;;;;6.22;2.58;;;24.70;45.80;;;;;;6235748;27;80588;-63
2021/06/13 08:27:28;;;;;;;6.82;2.78;;;24.80;45.80;;;;;;6235131;27;80324;-65
2021/06/13 08:30:29;;;;;;;5.35;2.90;;;24.80;45.70;;;;;;6235498;27;80528;-64
2021/06/13 08:33:30;;;;;;;4.13;2.85;;;24.80;45.80;;;;;;6234534;27;80586;-65
2021/06/13 08:36:30;;;;;;;5.50;2.88;;;24.80;45.70;;;;;;6238593;27;80735;-65
2021/06/13 08:39:31;;;;;;;5.45;2.50;;;24.80;45.70;;;;;;6236981;27;80776;-65
2021/06/13 08:42:31;;;;;;;7.55;3.00;;;24.80;46.00;;;;;;6241688;28;80509;-65
2021/06/13 08:45:32;;;;;;;7.20;3.10;;;24.80;45.40;;;;;;6235812;27;80351;-64
2021/06/13 08:48:33;;;;;;;7.35;2.95;;;24.80;45.20;;;;;;6235259;27;80573;-64
2021/06/13 08:51:33;;;;;;;6.53;2.83;;;24.80;45.70;;;;;;6234598;27;80434;-64
2021/06/13 08:54:34;;;;;;;5.18;2.83;;;24.80;45.20;;;;;;6234545;27;80693;-64
2021/06/13 08:57:34;;;;;;;5.45;2.50;;;24.70;45.10;;;;;;6241170;27;80231;-65
2021/06/13 09:00:35;;;;;;;8.23;2.92;;;24.80;45.20;;;;;;6235432;27;80316;-65
2021/06/13 09:03:35;;;;;;;6.78;2.47;;;24.80;45.10;;;;;;6232191;27;80693;-65
2021/06/13 09:06:36;;;;;;;7.38;2.45;;;24.80;45.20;;;;;;6232879;27;80901;-65
2021/06/13 09:09:36;;;;;;;6.88;2.53;;;24.80;45.20;;;;;;6242128;27;80354;-65
2021/06/13 09:12:37;;;;;;;3.40;2.30;;;24.80;44.90;;;;;;6234264;27;80592;-65
2021/06/13 09:15:38;;;;;;;4.55;2.25;;;24.80;44.80;;;;;;6233520;27;81211;-64
2021/06/13 09:18:38;;;;;;;6.22;2.65;;;24.80;45.40;;;;;;6235059;27;81265;-64
2021/06/13 09:21:39;;;;;;;3.67;2.30;;;24.90;45.30;;;;;;6235058;27;80359;-64
2021/06/13 09:24:40;;;;;;;6.22;2.67;;;24.90;45.50;;;;;;6231883;27;80648;-64
2021/06/13 09:27:40;;;;;;;5.70;2.60;;;24.90;45.30;;;;;;6234803;27;81098;-65
2021/06/13 09:30:41;;;;;;;8.35;2.80;;;24.90;45.40;;;;;;6230890;27;80561;-64
2021/06/13 09:33:42;;;;;;;10.43;3.45;;;24.90;45.30;;;;;;6230495;28;80527;-66
2021/06/13 09:36:42;;;;;;;5.88;2.90;;;24.90;45.70;;;;;;6230015;27;80562;-66
2021/06/13 09:39:43;;;;;;;10.48;3.38;;;24.80;45.30;;;;;;6233433;27;80754;-65
2021/06/13 09:42:43;;;;;;;5.30;2.67;;;24.90;45.50;;;;;;6224193;27;80333;-65
2021/06/13 09:45:44;;;;;;;5.32;2.88;;;24.90;45.10;;;;;;6236371;27;81818;-64
2021/06/13 09:48:44;;;;;;;5.45;2.85;;;24.90;45.40;;;;;;6236696;27;80337;-64
2021/06/13 09:51:45;;;;;;;4.85;2.80;;;25.00;45.20;;;;;;6234304;27;81043;-65
2021/06/13 09:54:46;;;;;;;9.60;2.75;;;24.90;45.20;;;;;;6231148;27;80535;-64
2021/06/13 09:57:46;;;;;;;5.78;2.80;;;25.00;45.20;;;;;;6234676;27;81027;-65
2021/06/13 10:00:47;;;;;;;9.40;2.47;;;25.00;45.20;;;;;;6237085;27;81287;-65
2021/06/13 10:03:47;;;;;;;9.15;2.83;;;24.90;45.30;;;;;;6232630;28;83385;-65
2021/06/13 10:06:48;;;;;;;7.85;2.63;;;24.90;45.40;;;;;;6231388;27;82270;-65
2021/06/13 10:09:50;;;;;;;4.25;2.45;;;25.00;45.60;;;;;;6231594;27;80426;-64
2021/06/13 10:12:50;;;;;;;3.35;2.00;;;25.00;45.60;;;;;;6230342;27;80630;-64
2021/06/13 10:15:51;;;;;;;5.28;2.63;;;25.00;45.20;;;;;;6233483;27;82041;-64
2021/06/13 10:18:51;;;;;;;4.88;2.72;;;25.00;45.10;;;;;;6230608;27;80252;-64
2021/06/13 10:21:52;;;;;;;5.47;2.28;;;25.00;45.20;;;;;;6230894;27;82784;-64
2021/06/13 10:24:53;;;;;;;4.88;2.90;;;25.00;45.00;;;;;;6230666;27;80719;-63
2021/06/13 10:27:53;;;;;;;5.05;2.45;;;25.00;44.80;;;;;;6238885;27;80379;-64
2021/06/13 10:30:54;;;;;;;5.05;2.78;;;25.00;44.60;;;;;;6236817;27;80520;-64
2021/06/13 10:33:54;;;;;;;5.60;2.65;;;25.00;44.90;;;;;;6237519;27;80366;-63
2021/06/13 10:36:55;;;;;;;7.75;2.50;;;25.00;44.70;;;;;;6234538;27;80629;-64
2021/06/13 10:39:55;;;;;;;6.05;2.63;;;25.00;44.50;;;;;;6228582;27;80731;-63
2021/06/13 10:42:56;;;;;;;6.25;2.55;;;25.00;44.70;;;;;;6228042;27;81580;-63
2021/06/13 10:45:56;;;;;;;9.90;2.85;;;24.90;44.20;;;;;;6230005;27;83513;-63
2021/06/13 10:48:59;;;;;;;4.18;2.47;;;25.00;44.40;;;;;;6226175;27;80635;-65
2021/06/13 10:51:59;;;;;;;7.72;2.60;;;24.90;44.00;;;;;;6234834;27;81379;-64
2021/06/13 10:55:00;;;;;;;6.97;2.80;;;24.90;43.80;;;;;;6235712;27;80611;-66
2021/06/13 10:58:00;;;;;;;4.43;2.28;;;24.90;43.30;;;;;;6229262;27;80913;-63
2021/06/13 11:01:01;;;;;;;5.50;2.35;;;24.90;43.40;;;;;;6233689;27;81358;-63
2021/06/13 11:04:02;;;;;;;6.85;2.83;;;24.90;42.70;;;;;;6225291;27;80231;-63
2021/06/13 11:07:02;;;;;;;5.03;2.25;;;24.90;42.30;;;;;;6231969;27;80307;-63
2021/06/13 11:10:06;;;;;;;5.20;2.35;;;24.90;41.70;;;;;;6230476;27;80688;-63
2021/06/13 11:13:08;;;;;;;6.70;2.40;;;24.90;42.10;;;;;;6228463;27;80920;-62
2021/06/13 11:16:09;;;;;;;5.82;2.28;;;24.90;41.50;;;;;;6233072;27;80342;-63
2021/06/13 11:19:10;;;;;;;4.38;2.72;;;24.90;41.60;;;;;;6229247;27;81681;-63
2021/06/13 11:22:10;;;;;;;5.45;2.70;;;24.90;41.40;;;;;;6231899;27;80399;-64
2021/06/13 11:25:11;;;;;;;4.90;2.17;;;24.90;41.10;;;;;;6234097;27;80598;-64
2021/06/13 11:28:11;;;;;;;3.78;2.25;;;24.90;41.30;;;;;;6234537;27;81227;-64
2021/06/13 11:31:13;;;;;;;6.88;2.90;;;24.90;40.80;;;;;;6229955;27;80324;-64
2021/06/13 11:34:14;;;;;;;5.05;2.63;;;24.90;40.80;;;;;;6229757;27;82937;-64
2021/06/13 11:37:14;;;;;;;7.40;2.75;;;24.90;40.50;;;;;;6229107;27;80964;-64
2021/06/13 11:40:15;;;;;;;3.85;2.60;;;24.90;40.00;;;;;;6227540;27;80380;-64
2021/06/13 11:43:15;;;;;;;5.60;2.58;;;24.90;40.30;;;;;;6233831;27;80989;-64
2021/06/13 11:46:16;;;;;;;6.53;2.95;;;24.90;40.50;;;;;;6230890;27;81649;-65
2021/06/13 11:49:16;;;;;;;6.30;3.13;;;25.00;40.10;;;;;;6241817;27;80410;-63
2021/06/13 11:52:19;;;;;;;5.15;2.35;;;24.90;40.40;;;;;;6236046;27;80546;-64
2021/06/13 11:55:20;;;;;;;6.22;2.35;;;24.90;40.80;;;;;;6233629;27;80625;-65
2021/06/13 11:58:20;;;;;;;6.15;2.53;;;24.90;40.60;;;;;;6244776;27;81662;-63
2021/06/13 12:01:21;;;;;;;6.32;2.30;;;24.90;40.30;;;;;;6242939;27;80649;-63
2021/06/13 12:04:22;;;;;;;7.65;2.55;;;24.90;40.90;;;;;;6238551;27;81294;-65
2021/06/13 12:07:23;;;;;;;3.70;2.50;;;24.90;40.40;;;;;;6240351;27;81488;-64
2021/06/13 12:10:31;;;;;;;6.53;3.05;;;24.90;40.30;;;;;;6240519;27;81585;-65
2021/06/13 12:13:32;;;;;;;8.55;3.38;;;24.90;40.60;;;;;;6238961;27;82584;-65
2021/06/13 12:16:32;;;;;;;5.00;2.55;;;25.00;41.30;;;;;;6236277;27;80558;-64
2021/06/13 12:19:34;;;;;;;3.85;2.33;;;25.10;41.10;;;;;;6241793;27;87546;-64
2021/06/13 12:22:54;;;;;;;3.88;2.35;;;25.00;41.30;;;;;;6224397;27;80670;-63
2021/06/13 12:29:14;;;;;;;5.05;2.90;;;25.00;41.70;;;;;;6231171;27;80443;-64
2021/06/13 12:32:14;;;;;;;5.25;2.25;;;25.00;41.50;;;;;;6230327;27;83677;-65
2021/06/13 12:35:15;;;;;;;5.82;2.47;;;25.10;41.90;;;;;;6226591;28;80568;-64
2021/06/13 12:38:18;;;;;;;6.28;2.45;;;25.10;41.90;;;;;;6230488;28;81068;-64
2021/06/13 12:41:19;;;;;;;4.00;2.40;;;25.10;42.10;;;;;;6231639;27;80456;-65
2021/06/13 12:44:19;;;;;;;5.85;2.63;;;25.10;42.10;;;;;;6229420;27;81451;-65
2021/06/13 12:47:20;;;;;;;5.85;2.10;;;25.10;42.10;;;;;;6228973;27;80454;-64
2021/06/13 12:50:20;;;;;;;4.53;2.33;;;25.10;42.10;;;;;;6231774;27;80396;-65
2021/06/13 12:53:21;;;;;;;5.57;2.58;;;25.10;43.40;;;;;;6235861;27;81942;-65
2021/06/13 12:56:22;;;;;;;4.75;2.30;;;25.20;42.20;;;;;;6229755;28;81834;-65
2021/06/13 12:59:22;;;;;;;4.68;2.47;;;25.20;42.30;;;;;;6233943;27;80773;-66
2021/06/13 13:02:23;;;;;;;5.18;2.20;;;25.20;42.30;;;;;;6232572;27;80600;-65
2021/06/13 13:05:23;;;;;;;5.45;2.13;;;25.20;42.50;;;;;;6240550;27;84145;-65
2021/06/13 13:08:24;;;;;;;6.20;2.70;;;25.10;42.20;;;;;;6234343;27;80669;-65
2021/06/13 13:11:25;;;;;;;7.30;2.90;;;25.20;42.20;;;;;;6233481;27;82203;-66
2021/06/13 13:14:25;;;;;;;2.75;2.10;;;25.20;42.50;;;;;;6233888;27;83236;-66
2021/06/13 13:17:26;;;;;;;5.32;2.47;;;25.20;42.10;;;;;;6234590;27;81584;-65
2021/06/13 13:20:30;;;;;;;4.10;2.63;;;25.20;42.80;;;;;;6232370;27;80148;-65
2021/06/13 13:23:30;;;;;;;4.28;2.30;;;25.20;42.20;;;;;;6231990;27;85339;-66
2021/06/13 13:26:31;;;;;;;5.25;2.63;;;25.20;42.50;;;;;;6233968;27;80596;-66
2021/06/13 13:29:31;;;;;;;4.50;2.00;;;25.20;42.90;;;;;;6233197;27;80123;-65
2021/06/13 13:32:32;;;;;;;7.80;2.10;;;25.20;42.30;;;;;;6234238;27;80380;-66
2021/06/13 13:35:32;;;;;;;6.65;2.47;;;25.20;42.50;;;;;;6237318;27;80133;-65
2021/06/13 13:38:33;;;;;;;5.05;2.17;;;25.20;42.50;;;;;;6233910;27;81616;-66
2021/06/13 13:41:33;;;;;;;7.05;2.40;;;25.10;42.60;;;;;;6232876;27;80373;-66
2021/06/13 13:44:34;;;;;;;9.13;2.70;;;25.20;42.10;;;;;;6231457;27;83361;-66
2021/06/13 13:47:35;;;;;;;7.28;2.40;;;25.10;42.20;;;;;;6233360;27;80504;-66
2021/06/13 13:50:35;;;;;;;4.18;2.30;;;25.10;41.80;;;;;;6233041;27;83109;-66
2021/06/13 13:53:38;;;;;;;6.38;2.75;;;25.10;41.90;;;;;;6232111;27;82465;-66
2021/06/13 13:56:38;;;;;;;3.88;2.30;;;25.10;41.20;;;;;;6231748;27;81638;-67
2021/06/13 13:59:39;;;;;;;5.72;2.85;;;25.10;41.40;;;;;;6234545;27;80944;-66
2021/06/13 14:02:39;;;;;;;4.28;2.17;;;25.10;41.30;;;;;;6232402;27;82042;-65
2021/06/13 14:05:40;;;;;;;3.15;2.40;;;25.10;41.50;;;;;;6231548;27;80838;-66
2021/06/13 14:08:40;;;;;;;6.28;2.25;;;25.00;41.30;;;;;;6232151;27;80255;-66
2021/06/13 14:11:41;;;;;;;6.55;2.53;;;25.00;41.10;;;;;;6240225;27;80974;-67
2021/06/13 14:14:42;;;;;;;7.90;2.30;;;25.00;41.80;;;;;;6233940;27;80791;-66
2021/06/13 14:17:42;;;;;;;6.88;2.60;;;25.00;41.00;;;;;;6229779;27;80340;-67
2021/06/13 14:20:43;;;;;;;4.18;2.13;;;25.00;41.00;;;;;;6230823;27;81363;-68
2021/06/13 14:23:43;;;;;;;4.22;2.33;;;25.00;40.90;;;;;;6230826;27;84281;-66
2021/06/13 14:26:44;;;;;;;6.53;2.60;;;24.90;40.40;;;;;;6231819;27;80305;-65
2021/06/13 14:29:44;;;;;;;7.18;2.88;;;25.00;40.20;;;;;;6231166;27;80799;-66
2021/06/13 14:32:45;;;;;;;6.20;2.15;;;24.90;40.40;;;;;;6237081;27;83265;-65
2021/06/13 14:35:45;;;;;;;5.63;1.90;;;24.90;40.60;;;;;;6221953;27;80328;-66
2021/06/13 14:38:46;;;;;;;6.60;3.03;;;24.90;40.50;;;;;;6231433;27;81690;-66
2021/06/13 14:41:46;;;;;;;5.85;2.50;;;25.00;40.80;;;;;;6237100;27;80702;-66
2021/06/13 14:44:47;;;;;;;5.07;2.22;;;25.00;40.90;;;;;;6229044;27;81102;-66
2021/06/13 14:47:47;;;;;;;5.60;2.88;;;25.00;40.60;;;;;;6227971;27;80675;-65
2021/06/13 14:50:48;;;;;;;4.07;2.50;;;24.90;40.70;;;;;;6229769;27;81254;-66
2021/06/13 14:53:52;;;;;;;5.43;2.10;;;24.90;40.80;;;;;;6229586;27;82554;-66
2021/06/13 14:56:53;;;;;;;4.78;1.92;;;24.90;40.40;;;;;;6231340;27;80484;-66
2021/06/13 14:59:53;;;;;;;9.48;2.17;;;24.90;40.70;;;;;;6230706;27;80413;-66
2021/06/13 15:02:54;;;;;;;6.78;2.55;;;24.90;39.90;;;;;;6228195;27;80383;-66
2021/06/13 15:05:54;;;;;;;6.97;2.58;;;24.90;40.50;;;;;;6227612;27;80203;-65
2021/06/13 15:08:55;;;;;;;7.25;2.28;;;24.90;40.30;;;;;;6231230;27;80760;-66
2021/06/13 15:11:56;;;;;;;6.47;2.33;;;24.90;40.00;;;;;;6236664;27;83663;-66
2021/06/13 15:14:57;;;;;;;5.80;2.30;;;24.90;40.10;;;;;;6233437;27;80433;-66
2021/06/13 15:17:57;;;;;;;8.50;2.67;;;24.90;39.70;;;;;;6245369;27;80260;-65
2021/06/13 15:20:58;;;;;;;6.43;2.28;;;24.90;40.00;;;;;;6235251;27;80737;-66
2021/06/13 15:23:58;;;;;;;7.53;2.30;;;24.90;40.20;;;;;;6240013;27;80328;-65
2021/06/13 15:26:59;;;;;;;9.05;2.72;;;24.90;40.00;;;;;;6234767;27;81432;-65
2021/06/13 15:29:59;;;;;;;6.18;2.60;;;24.90;40.00;;;;;;6233461;27;80622;-66
2021/06/13 15:33:00;;;;;;;4.20;2.33;;;24.90;40.20;;;;;;6234026;27;81123;-67
2021/06/13 15:36:01;;;;;;;4.68;2.10;;;24.90;39.70;;;;;;6233363;27;80567;-68
2021/06/13 15:39:01;;;;;;;6.82;2.45;;;24.90;39.80;;;;;;6235372;27;80447;-66
2021/06/13 15:42:02;;;;;;;5.40;2.10;;;24.90;40.20;;;;;;6233509;27;80245;-66
2021/06/13 15:45:02;;;;;;;9.48;2.40;;;24.90;40.30;;;;;;6234630;27;80931;-65